createdAt,value
2023-01-06T00:00:27.345Z,9.73
2023-01-06T00:02:53.988Z,8.90
2023-01-06T00:05:20.590Z,9.95
2023-01-06T00:07:51.246Z,13.00
2023-01-06T00:10:17.891Z,10.07
2023-01-06T00:12:45.890Z,12.57
2023-01-06T00:15:12.830Z,9.95
2023-01-06T00:17:39.629Z,8.00
2023-01-06T00:20:06.808Z,10.63
2023-01-06T00:22:33.662Z,9.40
2023-01-06T00:25:00.183Z,6.05
2023-01-06T00:27:26.841Z,17.15
2023-01-06T00:29:53.298Z,14.65
2023-01-06T00:32:19.946Z,9.90
2023-01-06T00:34:46.424Z,13.10
2023-01-06T00:37:12.912Z,10.93
2023-01-06T00:39:39.388Z,7.53
2023-01-06T00:42:06.740Z,9.60
2023-01-06T00:44:35.760Z,10.82
2023-01-06T00:47:03.184Z,11.95
2023-01-06T00:49:29.635Z,12.38
2023-01-06T00:51:56.065Z,19.50
2023-01-06T00:54:23.022Z,9.75
2023-01-06T00:56:51.889Z,17.75
2023-01-06T00:59:25.616Z,14.75
2023-01-06T01:01:54.787Z,12.23
2023-01-06T01:04:21.839Z,11.68
2023-01-06T01:06:49.254Z,18.10
2023-01-06T01:09:43.295Z,17.15
2023-01-06T01:12:12.043Z,11.50
2023-01-06T01:14:50.336Z,7.65
2023-01-06T01:17:20.754Z,8.18
2023-01-06T01:19:48.315Z,9.55
2023-01-06T01:22:14.811Z,14.35
2023-01-06T01:24:41.730Z,13.18
2023-01-06T01:27:08.350Z,9.75
2023-01-06T01:29:34.830Z,8.40
2023-01-06T01:32:01.480Z,13.52
2023-01-06T01:34:27.999Z,10.85
2023-01-06T01:36:55.011Z,8.65
2023-01-06T01:39:24.467Z,10.90
2023-01-06T01:41:51.517Z,9.85
2023-01-06T01:44:52.130Z,9.02
2023-01-06T01:47:21.767Z,8.13
2023-01-06T01:49:52.443Z,6.95
2023-01-06T01:52:19.940Z,8.93
2023-01-06T01:54:48.802Z,11.07
2023-01-06T01:57:21.376Z,7.30
2023-01-06T01:59:47.971Z,14.82
2023-01-06T02:02:16.654Z,11.45
2023-01-06T02:04:47.924Z,12.27
2023-01-06T02:07:14.474Z,12.45
2023-01-06T02:09:57.802Z,21.85
2023-01-06T02:12:24.280Z,9.10
2023-01-06T02:14:50.870Z,11.63
2023-01-06T02:17:44.626Z,10.23
2023-01-06T02:20:34.604Z,10.43
2023-01-06T02:23:31.737Z,13.45
2023-01-06T02:26:19.236Z,14.10
2023-01-06T02:29:16.560Z,7.18
2023-01-06T02:32:21.448Z,4.00
2023-01-06T02:35:22.432Z,11.93
2023-01-06T02:38:05.872Z,10.98
2023-01-06T02:40:34.936Z,9.13
2023-01-06T02:43:14.473Z,8.50
2023-01-06T02:46:10.200Z,5.72
2023-01-06T02:49:01.838Z,5.55
2023-01-06T02:51:41.453Z,8.50
2023-01-06T02:54:58.857Z,8.38
2023-01-06T02:57:32.018Z,10.27
2023-01-06T03:00:14.788Z,11.13
2023-01-06T03:02:45.564Z,5.90
2023-01-06T03:05:16.598Z,8.73
2023-01-06T03:07:45.780Z,6.65
2023-01-06T03:10:16.444Z,6.97
2023-01-06T03:13:00.248Z,8.83
2023-01-06T03:15:26.916Z,8.52
2023-01-06T03:17:53.509Z,4.20
2023-01-06T03:20:20.686Z,5.80
2023-01-06T03:22:47.825Z,7.20
2023-01-06T03:25:14.911Z,4.13
2023-01-06T03:27:41.403Z,10.07
2023-01-06T03:30:10.755Z,7.32
2023-01-06T03:32:55.565Z,13.07
2023-01-06T03:36:08.775Z,14.02
2023-01-06T03:39:16.935Z,4.82
2023-01-06T03:42:06.215Z,5.50
2023-01-06T03:44:50.164Z,8.00
2023-01-06T03:47:38.458Z,8.27
2023-01-06T03:50:17.851Z,8.85
2023-01-06T03:52:55.879Z,7.63
2023-01-06T03:55:29.991Z,5.95
2023-01-06T03:57:59.803Z,8.18
2023-01-06T04:00:32.842Z,7.43
2023-01-06T04:02:59.915Z,8.43
2023-01-06T04:05:28.829Z,5.93
2023-01-06T04:07:55.451Z,7.38
2023-01-06T04:10:23.366Z,12.80
2023-01-06T04:12:50.724Z,5.05
2023-01-06T04:15:20.419Z,7.32
2023-01-06T04:17:48.008Z,6.03
2023-01-06T04:20:20.550Z,15.20
2023-01-06T04:22:47.173Z,9.27
2023-01-06T04:25:13.679Z,4.47
2023-01-06T04:27:40.339Z,6.53
2023-01-06T04:30:07.537Z,7.72
2023-01-06T04:32:34.063Z,8.95
2023-01-06T04:35:00.517Z,9.93
2023-01-06T04:37:27.000Z,8.57
2023-01-06T04:39:53.419Z,14.60
2023-01-06T04:42:19.974Z,9.90
2023-01-06T04:44:46.560Z,7.53
2023-01-06T04:47:13.033Z,11.20
2023-01-06T04:49:39.463Z,4.30
2023-01-06T04:52:07.014Z,10.20
2023-01-06T04:54:33.468Z,5.80
2023-01-06T04:56:59.917Z,5.25
2023-01-06T04:59:26.431Z,5.70
2023-01-06T05:01:52.933Z,12.27
2023-01-06T05:04:19.559Z,8.30
2023-01-06T05:06:46.261Z,8.25
2023-01-06T05:09:12.764Z,8.85
2023-01-06T05:11:39.255Z,11.43
2023-01-06T05:14:05.718Z,10.82
2023-01-06T05:16:34.285Z,15.73
2023-01-06T05:19:01.350Z,15.45
2023-01-06T05:21:32.280Z,15.27
2023-01-06T05:23:59.377Z,8.90
2023-01-06T05:26:27.497Z,9.27
2023-01-06T05:28:54.373Z,13.30
2023-01-06T05:31:21.184Z,8.98
2023-01-06T05:33:47.669Z,12.43
2023-01-06T05:36:16.311Z,9.43
2023-01-06T05:38:43.629Z,8.95
2023-01-06T05:41:10.439Z,12.07
2023-01-06T05:43:37.563Z,15.77
2023-01-06T05:46:08.274Z,8.93
2023-01-06T05:48:35.292Z,15.25
2023-01-06T05:51:09.778Z,14.52
2023-01-06T05:53:38.849Z,10.15
2023-01-06T05:56:07.221Z,11.23
2023-01-06T05:58:34.542Z,17.10
2023-01-06T06:01:02.216Z,12.52
2023-01-06T06:03:28.714Z,7.53
2023-01-06T06:05:55.443Z,15.80
2023-01-06T06:08:21.915Z,9.50
2023-01-06T06:10:48.377Z,17.23
2023-01-06T06:13:14.838Z,15.15
2023-01-06T06:15:41.393Z,15.15
2023-01-06T06:18:07.843Z,18.55
2023-01-06T06:20:34.335Z,10.23
2023-01-06T06:23:00.976Z,9.40
2023-01-06T06:25:29.361Z,16.42
2023-01-06T06:27:59.429Z,14.98
2023-01-06T06:30:26.391Z,26.75
2023-01-06T06:32:52.933Z,26.00
2023-01-06T06:35:19.365Z,18.40
2023-01-06T06:37:45.843Z,21.05
2023-01-06T06:40:12.515Z,16.25
2023-01-06T06:42:38.968Z,19.63
2023-01-06T06:45:06.058Z,15.25
2023-01-06T06:47:32.613Z,16.45
2023-01-06T06:49:59.045Z,25.65
2023-01-06T06:52:25.538Z,17.88
2023-01-06T06:54:52.010Z,18.38
2023-01-06T06:57:18.485Z,16.08
2023-01-06T06:59:44.940Z,17.65
2023-01-06T07:02:11.570Z,20.60
2023-01-06T07:04:38.114Z,21.30
2023-01-06T07:07:04.622Z,23.45
2023-01-06T07:09:31.059Z,17.13
2023-01-06T07:11:57.470Z,22.02
2023-01-06T07:14:23.922Z,23.67
2023-01-06T07:16:50.349Z,22.75
2023-01-06T07:19:16.796Z,21.98
2023-01-06T07:21:43.250Z,31.38
2023-01-06T07:24:09.964Z,23.05
2023-01-06T07:26:36.597Z,25.55
2023-01-06T07:29:03.117Z,23.05
2023-01-06T07:31:29.962Z,25.65
2023-01-06T07:33:56.464Z,24.30
2023-01-06T07:36:22.884Z,39.90
2023-01-06T07:38:49.523Z,28.15
2023-01-06T07:41:15.983Z,29.35
2023-01-06T07:43:42.447Z,26.95
2023-01-06T07:46:09.480Z,38.70
2023-01-06T07:48:36.903Z,27.75
2023-01-06T07:51:03.507Z,28.02
2023-01-06T07:53:33.183Z,30.30
2023-01-06T07:55:59.700Z,29.17
2023-01-06T07:58:26.300Z,31.40
2023-01-06T08:00:52.868Z,31.58
2023-01-06T08:03:19.423Z,30.45
2023-01-06T08:05:45.992Z,29.40
2023-01-06T08:08:12.764Z,34.60
2023-01-06T08:10:40.842Z,38.47
2023-01-06T08:13:07.667Z,30.55
2023-01-06T08:15:36.076Z,32.70
2023-01-06T08:18:02.588Z,29.70
2023-01-06T08:20:29.117Z,29.35
2023-01-06T08:22:57.820Z,34.10
2023-01-06T08:25:24.297Z,30.50
2023-01-06T08:27:50.948Z,31.80
2023-01-06T08:30:21.458Z,38.03
2023-01-06T08:32:49.406Z,37.33
2023-01-06T08:35:16.149Z,36.92
2023-01-06T08:37:42.634Z,27.40
2023-01-06T08:40:09.487Z,31.25
2023-01-06T08:42:35.920Z,32.58
2023-01-06T08:45:02.535Z,38.25
2023-01-06T08:47:29.075Z,40.60
2023-01-06T08:49:55.501Z,49.00
2023-01-06T08:52:21.958Z,33.70
2023-01-06T08:54:48.371Z,49.33
2023-01-06T08:57:16.343Z,44.78
2023-01-06T08:59:42.931Z,43.65
2023-01-06T09:02:11.026Z,49.97
2023-01-06T09:04:37.606Z,48.95
2023-01-06T09:07:04.287Z,38.60
2023-01-06T09:09:30.709Z,44.88
2023-01-06T09:11:58.029Z,48.38
2023-01-06T09:14:24.790Z,48.63
2023-01-06T09:16:51.239Z,47.10
2023-01-06T09:19:17.913Z,45.20
2023-01-06T09:21:46.181Z,40.25
2023-01-06T09:24:14.239Z,50.65
2023-01-06T09:26:41.153Z,56.08
2023-01-06T09:29:07.686Z,44.67
2023-01-06T09:31:35.531Z,44.97
2023-01-06T09:34:02.290Z,41.00
2023-01-06T09:36:28.727Z,42.38
2023-01-06T09:38:55.334Z,45.03
2023-01-06T09:41:49.552Z,42.40
2023-01-06T09:44:54.906Z,42.25
2023-01-06T09:47:44.616Z,36.80
2023-01-06T09:50:21.076Z,42.15
2023-01-06T09:53:13.541Z,40.25
2023-01-06T09:55:52.204Z,37.08
2023-01-06T09:58:23.945Z,37.20
2023-01-06T10:00:53.167Z,43.13
2023-01-06T10:03:21.941Z,43.78
2023-01-06T10:05:51.401Z,49.45
2023-01-06T10:08:56.154Z,41.97
2023-01-06T10:11:49.506Z,50.42
2023-01-06T10:14:40.853Z,29.83
2023-01-06T10:17:58.586Z,36.80
2023-01-06T10:20:27.718Z,31.75
2023-01-06T10:22:59.152Z,33.55
2023-01-06T10:25:46.526Z,28.15
2023-01-06T10:28:31.833Z,29.80
2023-01-06T10:31:05.863Z,35.00
2023-01-06T10:33:37.564Z,34.75
2023-01-06T10:38:36.048Z,32.53
2023-01-06T10:43:32.537Z,28.52
2023-01-06T10:46:00.263Z,29.88
2023-01-06T10:48:30.838Z,33.97
2023-01-06T10:50:58.019Z,33.22
2023-01-06T10:53:24.710Z,32.83
2023-01-06T10:55:54.648Z,38.63
2023-01-06T10:58:24.133Z,29.17
2023-01-06T11:01:01.137Z,29.80
2023-01-06T11:03:33.741Z,29.25
2023-01-06T11:06:06.691Z,25.02
2023-01-06T11:08:34.342Z,27.65
2023-01-06T11:11:01.039Z,31.05
2023-01-06T11:13:27.924Z,28.90
2023-01-06T11:15:56.125Z,27.95
2023-01-06T11:18:25.602Z,33.97
2023-01-06T11:21:12.005Z,29.25
2023-01-06T11:23:41.248Z,25.98
2023-01-06T11:26:14.336Z,25.88
2023-01-06T11:28:42.769Z,26.95
2023-01-06T11:31:14.980Z,27.85
2023-01-06T11:34:00.992Z,33.85
2023-01-06T11:36:31.072Z,28.02
2023-01-06T11:39:01.765Z,28.52
2023-01-06T11:41:35.611Z,35.27
2023-01-06T11:44:22.414Z,33.35
2023-01-06T11:46:56.995Z,30.33
2023-01-06T11:49:32.755Z,27.80
2023-01-06T11:52:18.927Z,33.90
2023-01-06T11:54:45.945Z,30.20
2023-01-06T11:57:25.379Z,33.95
2023-01-06T12:00:05.121Z,26.88
2023-01-06T12:02:48.684Z,29.73
2023-01-06T12:05:28.832Z,30.40
2023-01-06T12:07:57.756Z,28.88
2023-01-06T12:10:34.602Z,32.67
2023-01-06T12:13:01.251Z,25.20
2023-01-06T12:15:30.606Z,30.58
2023-01-06T12:18:07.330Z,34.80
2023-01-06T12:20:38.395Z,22.52
2023-01-06T12:23:06.624Z,22.73
2023-01-06T12:25:55.057Z,24.13
2023-01-06T12:28:24.887Z,19.98
2023-01-06T12:31:10.035Z,23.30
2023-01-06T12:33:52.787Z,19.90
2023-01-06T12:36:59.699Z,20.50
2023-01-06T12:39:37.394Z,17.77
2023-01-06T12:42:03.860Z,24.02
2023-01-06T12:44:49.013Z,20.17
2023-01-06T12:47:24.582Z,18.90
2023-01-06T12:50:17.569Z,21.00
2023-01-06T12:52:58.362Z,15.65
2023-01-06T12:56:03.975Z,22.13
2023-01-06T12:59:05.216Z,14.13
2023-01-06T13:02:22.575Z,14.63
2023-01-06T13:05:11.583Z,12.38
2023-01-06T13:08:21.098Z,19.42
2023-01-06T13:11:37.443Z,11.02
2023-01-06T13:14:15.746Z,16.17
2023-01-06T13:16:48.233Z,14.10
2023-01-06T13:19:46.608Z,10.45
2023-01-06T13:22:23.231Z,8.25
2023-01-06T13:24:52.302Z,10.30
2023-01-06T13:27:57.490Z,10.13
2023-01-06T13:31:04.311Z,11.48
2023-01-06T13:33:54.460Z,7.35
2023-01-06T13:36:45.797Z,9.00
2023-01-06T13:39:22.115Z,8.55
2023-01-06T13:41:55.737Z,7.18
2023-01-06T13:44:30.704Z,4.32
2023-01-06T13:47:05.951Z,5.05
2023-01-06T13:49:34.086Z,12.23
2023-01-06T13:52:00.570Z,9.55
2023-01-06T13:54:39.182Z,7.57
2023-01-06T13:57:28.973Z,3.97
2023-01-06T14:00:17.465Z,5.68
2023-01-06T14:02:43.898Z,7.70
2023-01-06T14:05:19.284Z,8.13
2023-01-06T14:07:53.515Z,4.82
2023-01-06T14:10:32.131Z,4.20
2023-01-06T14:12:59.748Z,4.35
2023-01-06T14:15:36.401Z,5.30
2023-01-06T14:18:03.636Z,4.28
2023-01-06T14:20:31.810Z,5.95
2023-01-06T14:23:03.277Z,4.07
2023-01-06T14:25:30.472Z,3.13
2023-01-06T14:27:59.735Z,6.25
2023-01-06T14:30:31.777Z,12.77
2023-01-06T14:33:07.303Z,3.97
2023-01-06T14:35:44.987Z,2.70
2023-01-06T14:38:25.760Z,1.58
2023-01-06T14:41:02.984Z,1.58
2023-01-06T14:43:47.350Z,2.00
2023-01-06T14:46:30.150Z,2.70
2023-01-06T14:49:01.583Z,3.90
2023-01-06T14:51:30.302Z,2.40
2023-01-06T14:54:04.010Z,6.32
2023-01-06T14:56:33.163Z,3.88
2023-01-06T14:59:14.455Z,8.55
2023-01-06T15:01:44.023Z,4.45
2023-01-06T15:04:23.632Z,5.95
2023-01-06T15:07:20.989Z,11.85
2023-01-06T15:09:49.519Z,4.25
2023-01-06T15:12:30.654Z,5.15
2023-01-06T15:14:57.760Z,1.92
2023-01-06T15:17:24.282Z,3.75
2023-01-06T15:19:52.851Z,3.60
2023-01-06T15:22:25.645Z,1.40
2023-01-06T15:24:52.309Z,3.53
2023-01-06T15:27:19.490Z,4.63
2023-01-06T15:29:50.976Z,2.75
2023-01-06T15:32:19.146Z,2.17
2023-01-06T15:34:47.461Z,3.70
2023-01-06T15:37:23.967Z,2.55
2023-01-06T15:39:51.601Z,5.38
2023-01-06T15:42:22.575Z,6.18
2023-01-06T15:45:02.717Z,8.90
2023-01-06T15:47:39.418Z,5.15
2023-01-06T15:50:17.122Z,4.88
2023-01-06T15:52:49.774Z,2.67
2023-01-06T15:55:30.117Z,4.03
2023-01-06T15:58:08.390Z,5.25
2023-01-06T16:00:50.382Z,5.43
2023-01-06T16:03:22.241Z,3.72
2023-01-06T16:05:53.480Z,4.47
2023-01-06T16:08:26.715Z,5.65
2023-01-06T16:11:17.210Z,2.92
2023-01-06T16:13:58.627Z,3.47
2023-01-06T16:16:31.583Z,3.67
2023-01-06T16:18:58.341Z,4.65
2023-01-06T16:21:31.989Z,4.45
2023-01-06T16:24:04.093Z,4.10
2023-01-06T16:26:34.284Z,2.40
2023-01-06T16:29:05.400Z,4.10
2023-01-06T16:31:34.830Z,4.78
2023-01-06T16:34:26.649Z,7.20
2023-01-06T16:37:00.661Z,11.52
2023-01-06T16:39:27.686Z,3.67
2023-01-06T16:42:00.384Z,3.40
2023-01-06T16:44:31.585Z,5.35
2023-01-06T16:46:59.119Z,9.43
2023-01-06T16:49:25.925Z,3.13
2023-01-06T16:51:54.634Z,4.53
2023-01-06T16:54:22.574Z,4.45
2023-01-06T16:56:50.153Z,4.72
2023-01-06T16:59:18.570Z,2.85
2023-01-06T17:01:47.395Z,4.65
2023-01-06T17:04:15.238Z,2.78
2023-01-06T17:06:43.811Z,6.05
2023-01-06T17:09:21.745Z,5.15
2023-01-06T17:11:49.613Z,2.35
2023-01-06T17:14:21.097Z,5.20
2023-01-06T17:16:47.934Z,3.38
2023-01-06T17:19:28.288Z,6.07
2023-01-06T17:22:20.535Z,3.25
2023-01-06T17:24:47.167Z,7.45
2023-01-06T17:27:26.668Z,3.05
2023-01-06T17:29:54.924Z,3.40
2023-01-06T17:32:27.089Z,4.40
2023-01-06T17:34:53.675Z,3.15
2023-01-06T17:37:25.283Z,5.50
2023-01-06T17:42:32.453Z,4.10
2023-01-06T17:45:00.439Z,3.72
2023-01-06T17:47:29.706Z,4.82
2023-01-06T17:50:00.829Z,4.18
2023-01-06T17:52:35.646Z,5.68
2023-01-06T17:55:43.730Z,4.53
2023-01-06T17:58:15.097Z,4.88
2023-01-06T18:00:42.394Z,5.55
2023-01-06T18:03:19.100Z,5.10
2023-01-06T18:05:45.703Z,5.15
2023-01-06T18:08:14.892Z,7.97
2023-01-06T18:11:05.562Z,6.10
2023-01-06T18:13:31.965Z,6.55
2023-01-06T18:16:00.484Z,10.52
2023-01-06T18:18:36.693Z,5.22
2023-01-06T18:21:23.074Z,7.28
2023-01-06T18:23:52.248Z,8.63
2023-01-06T18:26:27.745Z,5.50
2023-01-06T18:28:59.906Z,5.45
2023-01-06T18:31:33.364Z,10.55
2023-01-06T18:34:02.274Z,5.60
2023-01-06T18:36:28.894Z,4.45
2023-01-06T18:38:56.233Z,6.10
2023-01-06T18:41:22.704Z,5.75
2023-01-06T18:43:49.141Z,5.43
2023-01-06T18:46:18.028Z,8.18
2023-01-06T18:48:45.302Z,7.18
2023-01-06T18:51:22.805Z,6.57
2023-01-06T18:53:51.363Z,10.57
2023-01-06T18:56:26.889Z,6.32
2023-01-06T18:58:57.060Z,8.80
2023-01-06T19:01:26.702Z,6.22
2023-01-06T19:04:16.494Z,9.15
2023-01-06T19:06:50.651Z,5.85
2023-01-06T19:09:25.935Z,10.73
2023-01-06T19:12:00.729Z,8.27
2023-01-06T19:14:29.427Z,11.10
2023-01-06T19:16:58.664Z,6.18
2023-01-06T19:19:34.805Z,7.43
2023-01-06T19:22:23.651Z,8.40
2023-01-06T19:25:03.846Z,7.78
2023-01-06T19:27:37.784Z,6.38
2023-01-06T19:30:13.078Z,7.95
2023-01-06T19:32:40.183Z,8.02
2023-01-06T19:35:17.616Z,12.50
2023-01-06T19:37:44.170Z,9.23
2023-01-06T19:40:25.363Z,12.75
2023-01-06T19:42:57.168Z,7.32
2023-01-06T19:45:32.556Z,7.88
2023-01-06T19:48:00.697Z,12.90
2023-01-06T19:50:27.324Z,11.30
2023-01-06T19:53:00.197Z,8.05
2023-01-06T19:55:32.664Z,7.22
2023-01-06T19:58:03.835Z,11.43
2023-01-06T20:00:31.921Z,8.85
2023-01-06T20:03:01.799Z,10.23
2023-01-06T20:05:29.699Z,9.55
2023-01-06T20:07:56.133Z,7.32
2023-01-06T20:10:22.754Z,8.48
2023-01-06T20:12:50.876Z,8.05
2023-01-06T20:15:17.400Z,8.27
2023-01-06T20:17:43.925Z,9.02
2023-01-06T20:20:10.916Z,8.60
2023-01-06T20:22:37.381Z,12.48
2023-01-06T20:25:04.101Z,11.40
2023-01-06T20:27:30.561Z,8.63
2023-01-06T20:29:57.005Z,10.45
2023-01-06T20:32:23.544Z,13.15
2023-01-06T20:34:50.105Z,11.07
2023-01-06T20:37:16.521Z,14.30
2023-01-06T20:39:43.087Z,10.32
2023-01-06T20:42:11.904Z,9.50
2023-01-06T20:44:39.567Z,10.65
2023-01-06T20:47:06.299Z,11.65
2023-01-06T20:49:32.767Z,15.32
2023-01-06T20:51:59.250Z,11.93
2023-01-06T20:54:25.693Z,13.00
2023-01-06T20:56:53.751Z,13.07
2023-01-06T20:59:20.468Z,9.43
2023-01-06T21:01:47.023Z,10.48
2023-01-06T21:04:13.687Z,10.80
2023-01-06T21:06:40.297Z,14.10
2023-01-06T21:09:06.795Z,12.00
2023-01-06T21:11:33.303Z,12.63
2023-01-06T21:13:59.741Z,12.90
2023-01-06T21:16:26.278Z,14.55
2023-01-06T21:18:52.814Z,12.55
2023-01-06T21:21:19.277Z,14.27
2023-01-06T21:23:45.725Z,12.68
2023-01-06T21:26:12.174Z,13.52
2023-01-06T21:28:38.697Z,18.83
2023-01-06T21:31:05.336Z,13.20
2023-01-06T21:33:32.708Z,12.32
2023-01-06T21:35:59.396Z,15.07
2023-01-06T21:38:25.834Z,13.65
2023-01-06T21:40:53.524Z,14.35
2023-01-06T21:43:19.998Z,15.65
2023-01-06T21:45:46.592Z,14.38
2023-01-06T21:48:14.116Z,16.30
2023-01-06T21:50:43.390Z,17.58
2023-01-06T21:53:12.316Z,13.07
2023-01-06T21:55:39.379Z,15.98
2023-01-06T21:58:05.947Z,17.52
2023-01-06T22:00:32.484Z,16.15
2023-01-06T22:02:59.030Z,16.60
2023-01-06T22:05:25.570Z,14.43
2023-01-06T22:07:53.325Z,16.15
2023-01-06T22:10:22.656Z,16.38
2023-01-06T22:12:52.676Z,18.80
2023-01-06T22:15:20.314Z,11.88
2023-01-06T22:17:46.898Z,14.23
2023-01-06T22:20:13.689Z,14.18
2023-01-06T22:22:41.598Z,14.68
2023-01-06T22:25:08.787Z,15.73
2023-01-06T22:27:35.299Z,14.65
2023-01-06T22:30:01.883Z,13.65
2023-01-06T22:32:28.481Z,16.33
2023-01-06T22:34:54.955Z,11.38
2023-01-06T22:37:21.511Z,14.10
2023-01-06T22:39:49.215Z,13.52
2023-01-06T22:42:16.135Z,14.30
2023-01-06T22:44:42.663Z,15.52
2023-01-06T22:47:09.238Z,12.43
2023-01-06T22:49:35.758Z,13.60
2023-01-06T22:52:02.234Z,14.30
2023-01-06T22:54:28.744Z,15.73
2023-01-06T22:56:55.181Z,15.00
2023-01-06T22:59:21.687Z,10.43
2023-01-06T23:01:48.282Z,13.35
2023-01-06T23:04:14.962Z,11.05
2023-01-06T23:06:42.081Z,11.07
2023-01-06T23:09:08.543Z,12.38
2023-01-06T23:11:41.304Z,12.88
2023-01-06T23:14:08.935Z,15.77
2023-01-06T23:16:36.993Z,12.13
2023-01-06T23:19:03.939Z,18.90
2023-01-06T23:21:31.696Z,16.90
2023-01-06T23:23:58.721Z,10.93
2023-01-06T23:26:35.912Z,15.95
2023-01-06T23:29:02.772Z,13.95
2023-01-06T23:31:31.820Z,11.75
2023-01-06T23:34:02.403Z,12.20
2023-01-06T23:36:32.731Z,13.63
2023-01-06T23:39:00.923Z,13.07
2023-01-06T23:41:31.232Z,15.82
2023-01-06T23:43:58.181Z,15.10
2023-01-06T23:46:33.632Z,15.75
2023-01-06T23:49:00.147Z,18.33
2023-01-06T23:51:30.568Z,15.02
2023-01-06T23:53:57.007Z,18.92
2023-01-06T23:56:25.877Z,12.85
2023-01-06T23:58:54.330Z,12.68
